Time;durP1;ratioP1;P1;durP2;ratioP2;P2;SDS_P1;SDS_P2;PMS_P1;PMS_P2;Temp;Humidity;BMP_temperature;BMP_pressure;BME280_temperature;BME280_humidity;BME280_pressure;Samples;Min_cycle;Max_cycle;Signal;HPM_P1;HPM_P2
2022/05/19 00:02:18;;;;;;;10.88;6.17;;;;;;;4.60;74.60;95637.56;1636855;85;21093;-52
2022/05/19 00:04:44;;;;;;;6.28;5.53;;;;;;;4.54;74.98;95639.69;1686892;85;20991;-52
2022/05/19 00:07:11;;;;;;;8.75;5.80;;;;;;;4.49;74.76;95634.05;1686924;83;21217;-52
2022/05/19 00:09:38;;;;;;;7.80;5.42;;;;;;;4.45;74.97;95646.87;1687514;85;21002;-51
2022/05/19 00:12:12;;;;;;;7.55;5.97;;;;;;;4.42;75.48;95650.37;1687175;85;20986;-52
2022/05/19 00:14:39;;;;;;;13.35;6.47;;;;;;;4.42;75.94;95650.37;1687200;85;21565;-52
2022/05/19 00:17:06;;;;;;;7.83;6.05;;;;;;;4.46;75.92;95646.30;1687546;85;21517;-52
2022/05/19 00:19:33;;;;;;;7.62;5.55;;;;;;;4.45;75.62;95634.61;1687320;85;21134;-51
2022/05/19 00:22:00;;;;;;;9.30;5.75;;;;;;;4.47;75.47;95643.20;1687264;85;21494;-53
2022/05/19 00:24:28;;;;;;;7.97;5.83;;;;;;;4.44;75.37;95646.67;1687377;85;21029;-52
2022/05/19 00:26:58;;;;;;;13.75;5.83;;;;;;;4.42;75.33;95645.52;1664905;85;21034;-52
2022/05/19 00:29:25;;;;;;;8.03;5.65;;;;;;;4.43;75.32;95649.20;1687340;85;21595;-53
2022/05/19 00:31:52;;;;;;;8.85;6.35;;;;;;;4.46;75.19;95642.98;1687225;85;21215;-53
2022/05/19 00:34:19;;;;;;;6.62;5.42;;;;;;;4.45;75.34;95643.38;1686934;85;21033;-52
2022/05/19 00:36:48;;;;;;;8.43;5.62;;;;;;;4.42;75.94;95644.92;1687201;85;21057;-52
2022/05/19 00:39:14;;;;;;;8.85;5.10;;;;;;;4.42;75.95;95640.83;1687211;85;21034;-52
2022/05/19 00:41:44;;;;;;;7.42;5.92;;;;;;;4.33;75.64;95632.84;1686919;83;21037;-53
2022/05/19 00:44:12;;;;;;;10.38;5.40;;;;;;;4.26;75.92;95638.27;1686968;84;20981;-52
2022/05/19 00:46:47;;;;;;;11.03;6.20;;;;;;;4.19;76.17;95639.59;1687125;85;21076;-54
2022/05/19 00:49:24;;;;;;;6.60;5.62;;;;;;;4.20;76.20;95635.73;1687449;85;21458;-52
2022/05/19 00:52:00;;;;;;;7.53;5.40;;;;;;;4.17;76.31;95635.13;1659403;85;21148;-52
2022/05/19 00:54:32;;;;;;;7.85;6.00;;;;;;;4.15;76.57;95636.88;1687325;85;21086;-52
2022/05/19 00:57:07;;;;;;;10.72;6.20;;;;;;;4.12;76.73;95636.30;1687509;85;21129;-53
2022/05/19 00:59:45;;;;;;;8.43;6.37;;;;;;;4.10;76.83;95637.83;1687137;85;21530;-52
2022/05/19 01:02:14;;;;;;;8.28;5.95;;;;;;;4.06;76.73;95637.05;1687058;85;21112;-52
2022/05/19 01:05:05;;;;;;;8.00;5.55;;;;;;;4.02;76.48;95640.34;1686839;85;21026;-52
2022/05/19 01:07:37;;;;;;;5.42;4.92;;;;;;;4.00;76.65;95635.27;1687190;84;20998;-51
2022/05/19 01:10:05;;;;;;;6.35;5.10;;;;;;;3.99;76.60;95630.20;1659432;85;21071;-53
2022/05/19 01:12:33;;;;;;;9.58;6.33;;;;;;;3.89;76.61;95629.59;1687160;85;21452;-53
2022/05/19 01:15:01;;;;;;;9.98;5.62;;;;;;;3.81;76.87;95632.86;1686906;85;21041;-51
2022/05/19 01:17:28;;;;;;;7.53;5.95;;;;;;;3.75;77.01;95627.59;1687537;85;20977;-52
2022/05/19 01:19:59;;;;;;;6.62;5.92;;;;;;;3.78;77.24;95637.70;1687438;85;21455;-52
2022/05/19 01:22:31;;;;;;;6.42;5.62;;;;;;;3.82;77.02;95624.09;1686797;85;21244;-51
2022/05/19 01:25:37;;;;;;;7.35;6.00;;;;;;;3.82;76.86;95633.05;1686692;85;21077;-52
2022/05/19 01:28:04;;;;;;;8.38;5.35;;;;;;;3.85;76.91;95639.09;1687466;85;21453;-53
2022/05/19 01:30:31;;;;;;;7.20;5.35;;;;;;;3.87;76.68;95629.96;1664926;85;21434;-51
2022/05/19 01:32:58;;;;;;;6.55;5.95;;;;;;;3.83;76.83;95633.25;1687015;85;21089;-51
2022/05/19 01:35:25;;;;;;;6.15;5.55;;;;;;;3.79;76.83;95635.19;1686944;85;21256;-52
2022/05/19 01:37:53;;;;;;;5.97;5.37;;;;;;;3.74;76.69;95633.41;1686927;85;21053;-50
2022/05/19 01:40:59;;;;;;;7.35;5.67;;;;;;;3.73;76.86;95631.84;1686571;85;20986;-52
2022/05/19 01:43:51;;;;;;;8.25;5.83;;;;;;;3.72;76.74;95637.09;1686960;85;21108;-52
2022/05/19 01:46:35;;;;;;;10.03;5.67;;;;;;;3.72;76.99;95639.22;1683207;85;21077;-51
2022/05/19 01:49:10;;;;;;;7.12;5.37;;;;;;;3.76;77.14;95641.96;1687268;85;21143;-52
2022/05/19 01:52:04;;;;;;;6.12;5.53;;;;;;;3.79;76.98;95640.63;1686664;85;21002;-51
2022/05/19 01:54:40;;;;;;;;;;;;;;;3.79;76.80;95645.28;1689538;85;21115;-52
2022/05/19 01:57:21;;;;;;;8.65;5.55;;;;;;;3.74;76.59;95643.72;1686895;85;20199;-53
2022/05/19 02:00:09;;;;;;;5.60;5.10;;;;;;;3.62;76.77;95648.13;1687220;85;21609;-52
2022/05/19 02:03:12;;;;;;;11.78;5.50;;;;;;;3.58;76.90;95647.33;1687187;85;21171;-52
2022/05/19 02:06:12;;;;;;;8.88;5.28;;;;;;;3.59;76.87;95650.25;1686287;85;21080;-52
2022/05/19 02:09:12;;;;;;;6.78;5.20;;;;;;;3.57;76.84;95648.48;1675589;84;21013;-53
2022/05/19 02:11:45;;;;;;;9.00;5.10;;;;;;;3.56;76.89;95652.94;1680669;85;21021;-53
2022/05/19 02:14:16;;;;;;;5.67;5.00;;;;;;;3.56;76.84;95654.30;1681411;85;21022;-52
2022/05/19 02:16:43;;;;;;;8.78;5.47;;;;;;;3.49;76.90;95648.83;1682014;85;21102;-52
2022/05/19 02:19:12;;;;;;;5.30;4.45;;;;;;;3.50;77.13;95648.43;1681890;85;21018;-52
2022/05/19 02:21:39;;;;;;;6.42;5.20;;;;;;;3.51;77.04;95647.27;1681550;85;21106;-52
2022/05/19 02:24:08;;;;;;;6.03;5.08;;;;;;;3.48;76.98;95654.07;1681569;85;21029;-52
2022/05/19 02:26:38;;;;;;;7.62;4.95;;;;;;;3.44;77.25;95648.41;1681732;85;21014;-52
2022/05/19 02:29:09;;;;;;;8.73;5.15;;;;;;;3.45;77.35;95660.24;1681836;85;21257;-52
2022/05/19 02:31:36;;;;;;;5.47;4.97;;;;;;;3.43;77.07;95650.33;1681048;85;21065;-52
2022/05/19 02:34:03;;;;;;;7.22;5.72;;;;;;;3.41;77.13;95655.37;1681367;85;21089;-51
2022/05/19 02:36:30;;;;;;;5.65;5.05;;;;;;;3.38;77.05;95662.16;1681828;85;21135;-53
2022/05/19 02:38:57;;;;;;;22.58;8.03;;;;;;;3.36;77.08;95665.81;1682091;85;21517;-52
2022/05/19 02:41:24;;;;;;;10.05;5.55;;;;;;;3.37;77.53;95664.66;1681792;85;21223;-51
2022/05/19 02:43:50;;;;;;;7.80;5.50;;;;;;;3.38;77.83;95668.96;1681291;85;21014;-52
2022/05/19 02:46:17;;;;;;;8.95;5.75;;;;;;;3.34;77.67;95665.41;1681312;85;21034;-53
2022/05/19 02:48:44;;;;;;;7.17;5.95;;;;;;;3.30;77.97;95659.18;1681504;85;20982;-52
2022/05/19 02:51:11;;;;;;;9.88;6.30;;;;;;;3.33;78.13;95655.70;1632557;87;20983;-53
2022/05/19 02:53:37;;;;;;;7.80;5.22;;;;;;;3.39;78.06;95655.56;1632516;88;22378;-52
2022/05/19 02:56:04;;;;;;;6.25;5.40;;;;;;;3.43;77.60;95654.41;1632560;86;21077;-50
2022/05/19 02:58:31;;;;;;;8.75;5.90;;;;;;;3.47;77.45;95657.95;1632393;88;20975;-52
2022/05/19 03:00:59;;;;;;;8.23;5.53;;;;;;;3.47;77.35;95659.31;1632740;88;21063;-52
2022/05/19 03:03:26;;;;;;;5.62;4.97;;;;;;;3.49;77.58;95660.47;1632174;88;21070;-52
2022/05/19 03:05:53;;;;;;;10.58;5.55;;;;;;;3.51;77.41;95664.95;1632414;87;21171;-52
2022/05/19 03:08:22;;;;;;;5.92;5.03;;;;;;;3.46;77.38;95670.55;1632918;87;21093;-52
2022/05/19 03:10:49;;;;;;;6.55;5.75;;;;;;;3.40;77.30;95670.13;1635413;87;21559;-52
2022/05/19 03:13:20;;;;;;;11.03;5.83;;;;;;;3.34;77.58;95670.29;1635483;87;21085;-52
2022/05/19 03:15:46;;;;;;;6.00;5.40;;;;;;;3.34;77.77;95670.85;1635114;87;21102;-51
2022/05/19 03:18:13;;;;;;;10.13;5.35;;;;;;;3.40;78.13;95674.20;1635350;87;21333;-52
2022/05/19 03:20:41;;;;;;;11.28;6.85;;;;;;;3.45;77.90;95681.23;1635136;87;21550;-52
2022/05/19 03:23:08;;;;;;;7.12;5.50;;;;;;;3.42;77.59;95675.97;1634968;87;21102;-52
2022/05/19 03:25:35;;;;;;;9.58;5.72;;;;;;;3.43;77.86;95684.92;1635085;87;21075;-51
2022/05/19 03:28:03;;;;;;;9.98;5.62;;;;;;;3.48;77.76;95683.20;1635320;87;20979;-52
2022/05/19 03:30:30;;;;;;;9.08;5.90;;;;;;;3.58;77.95;95681.90;1635022;87;21333;-52
2022/05/19 03:32:57;;;;;;;8.28;5.58;;;;;;;3.83;78.06;95682.84;1635429;87;21023;-52
2022/05/19 03:35:24;;;;;;;8.13;6.12;;;;;;;4.00;77.55;95685.63;1634522;87;21020;-51
2022/05/19 03:37:50;;;;;;;9.93;7.83;;;;;;;4.13;77.32;95686.86;1635478;87;21023;-50
2022/05/19 03:40:17;;;;;;;10.63;7.03;;;;;;;4.25;76.94;95681.66;1635406;87;21044;-52
2022/05/19 03:42:44;;;;;;;7.55;6.53;;;;;;;4.56;77.27;95680.37;1635314;87;21794;-53
2022/05/19 03:45:11;;;;;;;13.48;6.12;;;;;;;6.44;77.48;95674.52;1635276;87;21142;-53
2022/05/19 03:47:37;;;;;;;5.92;4.83;;;;;;;8.38;71.45;95678.19;1635072;87;21086;-52
2022/05/19 03:50:06;;;;;;;7.83;4.85;;;;;;;8.80;66.75;95684.48;1635413;87;21088;-52
2022/05/19 03:52:39;;;;;;;6.67;4.87;;;;;;;8.52;65.08;95679.39;1635157;86;20975;-53
2022/05/19 03:55:09;;;;;;;5.30;4.47;;;;;;;8.09;64.75;95682.39;1635137;87;21294;-53
2022/05/19 03:57:36;;;;;;;5.80;4.62;;;;;;;7.68;65.27;95685.76;1635112;87;21055;-52
2022/05/19 04:00:07;;;;;;;5.97;4.17;;;;;;;7.37;65.98;95696.38;1634961;87;21039;-52
2022/05/19 04:02:35;;;;;;;5.75;4.50;;;;;;;7.10;66.45;95692.69;1634889;87;21570;-51
2022/05/19 04:05:04;;;;;;;5.60;4.20;;;;;;;6.88;67.07;95693.83;1635015;87;20975;-53
2022/05/19 04:07:32;;;;;;;7.95;5.35;;;;;;;6.70;67.37;95695.28;1635381;86;20959;-53
2022/05/19 04:09:59;;;;;;;5.78;5.00;;;;;;;6.56;67.80;95699.45;1634130;87;21075;-53
2022/05/19 04:12:27;;;;;;;6.53;5.70;;;;;;;6.49;68.08;95690.53;1633414;87;21046;-54
2022/05/19 04:14:54;;;;;;;7.85;5.10;;;;;;;6.39;68.08;95688.03;1637024;87;21523;-52
2022/05/19 04:17:21;;;;;;;7.70;5.45;;;;;;;6.30;68.32;95696.47;1637238;87;20976;-52
2022/05/19 04:19:48;;;;;;;5.90;5.30;;;;;;;6.24;68.54;95693.36;1637210;87;21166;-52
2022/05/19 04:22:14;;;;;;;7.22;4.97;;;;;;;6.19;68.84;95702.55;1637297;87;21432;-53
2022/05/19 04:24:41;;;;;;;13.13;5.60;;;;;;;6.14;68.73;95701.59;1625564;88;21035;-52
2022/05/19 04:27:11;;;;;;;6.58;5.45;;;;;;;6.09;68.97;95700.61;1637102;87;21014;-53
2022/05/19 04:29:38;;;;;;;6.67;5.92;;;;;;;6.11;68.90;95701.00;1637148;87;21055;-57
2022/05/19 04:32:06;;;;;;;6.15;5.55;;;;;;;6.11;68.92;95701.80;1637223;87;21254;-57
2022/05/19 04:34:33;;;;;;;7.15;5.78;;;;;;;6.13;69.25;95698.67;1636451;87;21034;-52
2022/05/19 04:36:59;;;;;;;6.40;5.33;;;;;;;6.22;69.35;95694.92;1614045;87;21550;-51
2022/05/19 04:39:26;;;;;;;6.53;5.90;;;;;;;6.30;69.22;95689.03;1636605;86;21093;-57
2022/05/19 04:41:53;;;;;;;10.18;5.95;;;;;;;6.35;69.14;95694.69;1636659;87;21000;-52
2022/05/19 04:44:20;;;;;;;11.78;8.13;;;;;;;6.40;68.85;95691.53;1636367;87;21150;-54
2022/05/19 04:46:47;;;;;;;8.28;5.45;;;;;;;6.44;68.70;95693.66;1636531;87;21011;-52
2022/05/19 04:49:14;;;;;;;12.73;7.90;;;;;;;6.49;68.66;95691.90;1636554;87;20995;-52
2022/05/19 04:51:41;;;;;;;8.75;5.62;;;;;;;6.51;68.68;95686.81;1614443;87;21003;-53
2022/05/19 04:54:07;;;;;;;6.87;5.60;;;;;;;6.53;68.61;95678.98;1636766;87;21026;-52
2022/05/19 04:56:35;;;;;;;11.08;5.87;;;;;;;6.59;68.54;95681.48;1626239;87;21239;-52
2022/05/19 04:59:03;;;;;;;10.18;6.10;;;;;;;6.63;68.60;95680.87;1637585;87;21012;-53
2022/05/19 05:01:30;;;;;;;6.30;5.55;;;;;;;6.74;68.50;95676.12;1636971;87;21120;-52
2022/05/19 05:03:56;;;;;;;9.53;5.15;;;;;;;6.83;68.17;95679.19;1636915;87;21058;-55
2022/05/19 05:06:23;;;;;;;8.43;5.62;;;;;;;6.86;68.10;95685.25;1625782;87;21539;-54
2022/05/19 05:08:49;;;;;;;9.75;5.30;;;;;;;6.93;67.93;95671.52;1636947;87;21149;-53
2022/05/19 05:11:16;;;;;;;10.18;5.53;;;;;;;7.02;67.80;95671.83;1634252;87;21069;-52
2022/05/19 05:13:43;;;;;;;13.93;7.55;;;;;;;7.08;67.76;95664.95;1634162;87;21016;-53
2022/05/19 05:16:10;;;;;;;8.13;5.60;;;;;;;7.26;67.88;95668.34;1634092;87;21514;-52
2022/05/19 05:18:36;;;;;;;7.60;5.75;;;;;;;7.48;67.65;95668.34;1634304;87;21054;-52
2022/05/19 05:21:05;;;;;;;6.75;5.37;;;;;;;7.62;67.05;95664.69;1579909;88;21183;-52
2022/05/19 05:23:32;;;;;;;13.05;6.03;;;;;;;7.67;66.52;95652.70;1610396;87;21526;-58
2022/05/19 05:25:59;;;;;;;6.53;5.80;;;;;;;7.68;66.10;95652.12;1633193;87;21086;-53
2022/05/19 05:28:25;;;;;;;10.30;5.58;;;;;;;7.73;66.05;95651.08;1609418;87;21361;-51
2022/05/19 05:30:52;;;;;;;14.23;6.53;;;;;;;7.78;66.10;95650.66;1633782;87;21536;-53
2022/05/19 05:33:19;;;;;;;9.08;5.45;;;;;;;7.85;65.80;95645.09;1624303;88;21112;-54
2022/05/19 05:35:46;;;;;;;7.33;5.70;;;;;;;7.98;65.58;95646.70;1679228;85;21037;-52
2022/05/19 05:38:14;;;;;;;20.85;6.60;;;;;;;8.10;65.15;95645.58;1681148;85;21084;-55
2022/05/19 05:40:42;;;;;;;11.05;6.40;;;;;;;8.27;65.01;95647.98;1681205;85;20983;-54
2022/05/19 05:43:16;;;;;;;6.25;5.15;;;;;;;8.43;64.35;95640.70;1680343;85;21077;-57
2022/05/19 05:45:43;;;;;;;9.03;5.83;;;;;;;8.59;63.75;95646.38;1655260;85;21907;-53
2022/05/19 05:48:10;;;;;;;12.28;4.80;;;;;;;8.73;63.42;95649.52;1675849;85;21081;-53
2022/05/19 05:50:39;;;;;;;7.53;5.37;;;;;;;8.86;63.11;95646.40;1649221;85;21014;-54
2022/05/19 05:53:06;;;;;;;10.55;5.42;;;;;;;8.96;63.00;95642.91;1678294;84;21103;-53
2022/05/19 05:55:36;;;;;;;8.20;4.40;;;;;;;9.07;62.72;95640.01;1672384;85;21131;-53
2022/05/19 05:58:07;;;;;;;5.55;5.05;;;;;;;9.25;62.33;95648.74;1643498;86;21246;-56
2022/05/19 06:00:33;;;;;;;7.03;5.35;;;;;;;9.41;62.09;95646.89;1671289;84;21029;-56
2022/05/19 06:03:00;;;;;;;11.55;5.55;;;;;;;9.61;61.54;95649.72;1670115;85;21081;-54
2022/05/19 06:05:26;;;;;;;7.75;4.92;;;;;;;9.76;61.17;95651.02;1674475;84;21153;-53
2022/05/19 06:07:54;;;;;;;8.28;4.70;;;;;;;9.90;61.34;95639.75;1678440;84;21088;-55
2022/05/19 06:10:22;;;;;;;8.23;4.75;;;;;;;10.07;60.46;95638.09;1642341;85;21182;-55
2022/05/19 06:12:49;;;;;;;7.55;5.42;;;;;;;10.19;59.76;95641.57;1660588;85;21057;-55
2022/05/19 06:15:16;;;;;;;10.32;5.20;;;;;;;10.26;59.53;95636.53;1641266;85;21014;-54
2022/05/19 06:17:43;;;;;;;8.85;4.60;;;;;;;10.38;59.40;95635.91;1661507;85;21029;-57
2022/05/19 06:20:13;;;;;;;5.28;4.30;;;;;;;10.54;58.69;95633.22;1662807;85;21664;-55
2022/05/19 06:22:42;;;;;;;5.22;3.85;;;;;;;10.63;57.95;95630.06;1641963;85;21122;-56
2022/05/19 06:25:11;;;;;;;8.75;4.40;;;;;;;10.73;57.51;95628.28;1636840;85;21120;-60
2022/05/19 06:27:38;;;;;;;6.92;4.20;;;;;;;10.89;57.59;95634.59;1638670;85;21968;-56
2022/05/19 06:30:07;;;;;;;9.13;4.25;;;;;;;11.11;57.29;95635.66;1664570;85;21029;-54
2022/05/19 06:32:36;;;;;;;6.83;4.25;;;;;;;11.31;56.87;95629.50;1654720;85;21093;-55
2022/05/19 06:35:04;;;;;;;5.80;4.22;;;;;;;11.50;55.92;95624.50;1642998;85;21204;-53
2022/05/19 06:37:31;;;;;;;9.38;4.22;;;;;;;11.61;55.13;95627.19;1646187;85;21117;-55
2022/05/19 06:39:58;;;;;;;9.05;4.25;;;;;;;11.74;55.28;95630.02;1641508;85;21026;-55
2022/05/19 06:42:25;;;;;;;16.25;4.75;;;;;;;11.91;55.10;95627.40;1641794;85;21116;-55
2022/05/19 06:44:56;;;;;;;4.58;3.45;;;;;;;12.11;54.80;95621.91;1645734;85;21209;-55
2022/05/19 06:47:23;;;;;;;10.55;4.83;;;;;;;12.31;53.91;95619.80;1640561;85;21195;-56
2022/05/19 06:49:51;;;;;;;6.95;3.42;;;;;;;12.49;53.64;95613.14;1638651;86;21172;-55
2022/05/19 06:52:21;;;;;;;5.78;3.95;;;;;;;12.68;53.54;95617.73;1623220;85;21068;-59
2022/05/19 06:54:51;;;;;;;6.03;5.12;;;;;;;12.84;53.28;95617.63;1631527;86;21386;-55
2022/05/19 06:57:20;;;;;;;5.65;4.03;;;;;;;12.96;52.21;95619.66;1647235;85;21040;-59
2022/05/19 06:59:50;;;;;;;5.47;3.62;;;;;;;13.12;52.21;95618.18;1646099;85;22277;-59
2022/05/19 07:02:20;;;;;;;5.62;3.65;;;;;;;13.29;51.66;95619.61;1627293;86;21150;-58
2022/05/19 07:04:47;;;;;;;6.10;2.95;;;;;;;13.44;51.52;95611.80;1629004;86;21507;-61
2022/05/19 07:07:14;;;;;;;4.62;2.70;;;;;;;13.56;50.64;95619.31;1645015;85;21635;-55
2022/05/19 07:09:43;;;;;;;2.45;2.25;;;;;;;13.65;49.39;95610.34;1656161;84;21183;-55
2022/05/19 07:12:11;;;;;;;6.35;2.40;;;;;;;13.74;47.75;95611.20;1675017;85;21309;-55
2022/05/19 07:14:38;;;;;;;7.70;2.80;;;;;;;13.80;47.07;95610.78;1669863;84;21068;-55
2022/05/19 07:17:06;;;;;;;25.20;12.90;;;;;;;13.92;46.84;95611.37;1673011;84;21627;-55
2022/05/19 07:22:22;;;;;;;6.28;3.10;;;;;;;14.12;46.57;95598.02;1669862;84;21040;-56
2022/05/19 07:24:49;;;;;;;5.62;2.40;;;;;;;14.27;47.29;95586.63;1674610;84;21237;-55
2022/05/19 07:27:16;;;;;;;2.83;2.37;;;;;;;14.45;47.34;95591.67;1650593;84;21130;-58
2022/05/19 07:29:43;;;;;;;5.85;2.30;;;;;;;14.65;46.16;95587.19;1649992;85;20997;-54
2022/05/19 07:32:10;;;;;;;2.85;2.30;;;;;;;14.78;45.50;95586.51;1676375;84;21026;-54
2022/05/19 07:34:37;;;;;;;3.40;2.10;;;;;;;14.88;44.60;95586.10;1678522;83;21038;-54
2022/05/19 07:37:06;;;;;;;4.95;2.22;;;;;;;14.94;44.17;95588.42;1647662;85;21097;-55
2022/05/19 07:39:33;;;;;;;9.25;2.70;;;;;;;14.97;43.90;95590.28;1676969;84;21065;-54
2022/05/19 07:42:01;;;;;;;6.55;2.50;;;;;;;15.00;44.39;95587.23;1657216;84;21470;-53
2022/05/19 07:44:30;;;;;;;11.63;2.80;;;;;;;15.12;45.31;95587.13;1677435;85;21029;-57
2022/05/19 07:46:57;;;;;;;3.05;2.20;;;;;;;15.25;43.65;95589.78;1648045;85;21170;-54
2022/05/19 07:49:24;;;;;;;5.35;2.52;;;;;;;15.28;43.30;95589.66;1674752;84;21242;-57
2022/05/19 07:51:51;;;;;;;4.20;2.25;;;;;;;15.30;43.40;95587.23;1675795;84;21874;-58
2022/05/19 07:54:21;;;;;;;6.35;2.80;;;;;;;15.33;43.21;95577.98;1679364;83;21025;-54
2022/05/19 07:56:49;;;;;;;7.00;2.50;;;;;;;15.41;43.44;95577.88;1673267;85;21016;-57
2022/05/19 07:59:16;;;;;;;5.03;2.72;;;;;;;15.51;43.55;95571.10;1674442;84;21054;-57
2022/05/19 08:01:44;;;;;;;6.33;2.37;;;;;;;15.63;43.54;95570.22;1677253;84;21054;-55
2022/05/19 08:04:11;;;;;;;4.05;2.92;;;;;;;15.74;42.99;95569.14;1674395;83;21018;-57
2022/05/19 08:06:39;;;;;;;4.22;2.33;;;;;;;15.80;42.33;95566.53;1679473;85;21081;-57
2022/05/19 08:11:53;;;;;;;2.35;2.17;;;;;;;16.02;42.58;95560.22;1683164;83;21073;-56
2022/05/19 08:17:10;;;;;;;4.85;3.50;;;;;;;16.33;43.10;95556.07;1682861;83;20997;-55
2022/05/19 08:19:38;;;;;;;3.73;2.60;;;;;;;16.54;42.35;95562.08;1688377;83;21056;-55
2022/05/19 08:22:06;;;;;;;3.62;2.30;;;;;;;16.69;41.57;95558.18;1661603;83;38245;-55
2022/05/19 08:24:36;;;;;;;3.27;2.08;;;;;;;16.82;41.65;95553.82;1684458;83;21102;-56
2022/05/19 08:27:04;;;;;;;1.90;1.80;;;;;;;16.90;41.06;95556.44;1684599;85;21140;-58
2022/05/19 08:29:31;;;;;;;2.92;2.25;;;;;;;16.97;41.18;95564.44;1682218;83;21721;-55
2022/05/19 08:31:58;;;;;;;4.03;2.00;;;;;;;17.05;41.22;95555.90;1684812;85;21044;-56
2022/05/19 08:34:24;;;;;;;8.60;2.98;;;;;;;17.09;41.41;95552.35;1682897;83;21077;-54
2022/05/19 08:36:51;;;;;;;4.20;2.37;;;;;;;17.22;41.22;95558.45;1682343;83;21197;-55
2022/05/19 08:39:19;;;;;;;4.75;2.27;;;;;;;17.34;40.59;95559.69;1680502;85;21131;-56
2022/05/19 08:41:52;;;;;;;5.83;1.80;;;;;;;17.47;40.27;95565.03;1680642;83;21086;-55
2022/05/19 08:44:34;;;;;;;3.20;2.02;;;;;;;17.50;39.74;95561.30;1683440;83;21038;-58
2022/05/19 08:47:03;;;;;;;2.77;2.20;;;;;;;17.53;38.99;95565.92;1682861;83;21043;-58
2022/05/19 08:49:58;;;;;;;6.00;2.08;;;;;;;17.54;38.54;95557.11;1683174;85;21097;-57
2022/05/19 08:52:26;;;;;;;5.10;2.55;;;;;;;17.56;38.39;95563.58;1683680;83;21155;-56
2022/05/19 08:54:56;;;;;;;3.98;2.12;;;;;;;17.58;38.02;95548.56;1678878;83;21541;-57
2022/05/19 08:57:35;;;;;;;6.40;2.20;;;;;;;17.57;37.92;95552.59;1684422;83;21520;-57
2022/05/19 09:00:22;;;;;;;2.77;2.02;;;;;;;17.56;38.19;95546.88;1663815;85;21718;-58
2022/05/19 09:03:16;;;;;;;2.17;1.60;;;;;;;17.64;38.25;95543.91;1669455;85;20988;-56
2022/05/19 09:06:05;;;;;;;4.03;2.58;;;;;;;17.71;38.19;95536.59;1686586;83;21169;-56
2022/05/19 09:09:10;;;;;;;7.20;2.02;;;;;;;17.81;39.21;95544.41;1685004;85;21022;-54
2022/05/19 09:11:58;;;;;;;3.47;2.02;;;;;;;17.99;40.91;95538.70;1678747;84;21159;-56
2022/05/19 09:14:27;;;;;;;3.20;2.22;;;;;;;18.20;38.93;95538.38;1676665;84;20998;-55
2022/05/19 09:17:02;;;;;;;4.72;1.67;;;;;;;18.31;37.51;95536.45;1682560;84;21101;-60
2022/05/19 09:19:43;;;;;;;8.50;4.22;;;;;;;18.37;37.39;95531.75;1672885;84;21121;-55
2022/05/19 09:22:17;;;;;;;4.90;2.05;;;;;;;18.43;37.18;95531.25;1622179;86;21561;-58
2022/05/19 09:24:49;;;;;;;5.42;2.30;;;;;;;18.50;36.93;95525.29;1679741;84;21140;-56
2022/05/19 09:27:22;;;;;;;5.50;2.95;;;;;;;18.53;36.45;95522.32;1650593;84;21108;-56
2022/05/19 09:29:53;;;;;;;8.90;1.75;;;;;;;18.58;36.55;95522.25;1677746;85;21110;-57
2022/05/19 09:32:37;;;;;;;;;;;;;;;18.59;35.63;95519.61;1680438;84;21877;-54
2022/05/19 09:35:14;;;;;;;3.42;1.77;;;;;;;18.60;35.85;95521.93;1678727;84;20291;-59
2022/05/19 09:37:44;;;;;;;6.40;2.00;;;;;;;18.60;35.84;95512.17;1674541;85;21533;-57
2022/05/19 09:40:17;;;;;;;1.87;1.37;;;;;;;18.71;35.55;95504.63;1654743;85;21554;-58
2022/05/19 09:43:04;;;;;;;5.87;1.72;;;;;;;18.87;35.16;95497.16;1676093;84;21037;-58
2022/05/19 09:45:38;;;;;;;4.47;2.08;;;;;;;18.93;34.85;95496.00;1671625;85;22217;-54
2022/05/19 09:48:07;;;;;;;4.78;2.10;;;;;;;18.98;34.88;95491.14;1675483;84;21062;-55
2022/05/19 09:50:43;;;;;;;2.83;1.62;;;;;;;19.08;34.43;95493.97;1693376;84;21041;-56
2022/05/19 09:53:26;;;;;;;5.17;2.20;;;;;;;19.12;34.04;95488.17;1679658;84;21068;-56
2022/05/19 09:55:57;;;;;;;6.92;2.10;;;;;;;19.15;36.16;95489.37;1678894;85;21069;-55
2022/05/19 09:58:25;;;;;;;3.00;1.80;;;;;;;19.21;34.65;95478.33;1690868;84;21739;-57
2022/05/19 10:00:54;;;;;;;2.47;1.77;;;;;;;19.33;33.89;95480.79;1679768;85;20978;-59
2022/05/19 10:03:37;;;;;;;5.47;1.70;;;;;;;19.46;33.82;95465.88;1680142;85;21042;-55
2022/05/19 10:06:08;;;;;;;2.90;1.63;;;;;;;19.65;35.78;95459.39;1686478;84;20980;-56
2022/05/19 10:08:43;;;;;;;1.70;1.50;;;;;;;19.91;32.88;95463.02;1701650;84;21459;-56
2022/05/19 10:11:21;;;;;;;5.05;1.57;;;;;;;20.03;33.69;95454.30;1681050;84;21627;-54
2022/05/19 10:13:51;;;;;;;2.80;1.72;;;;;;;20.23;34.70;95459.86;1683600;85;21121;-54
2022/05/19 10:16:36;;;;;;;1.32;1.22;;;;;;;20.48;31.92;95457.67;1681530;83;21084;-57
2022/05/19 10:19:20;;;;;;;4.97;1.90;;;;;;;20.62;31.97;95456.80;1662296;83;21101;-56
2022/05/19 10:22:31;;;;;;;3.37;1.62;;;;;;;20.86;31.53;95452.47;1689867;83;21049;-56
2022/05/19 10:25:23;;;;;;;5.55;1.50;;;;;;;21.12;30.54;95455.20;1683940;83;21138;-55
2022/05/19 10:31:40;;;;;;;1.57;1.47;;;;;;;21.67;29.89;95450.70;1685161;85;21060;-56
2022/05/19 10:35:05;;;;;;;2.42;1.60;;;;;;;21.86;29.20;95439.20;1688119;83;21029;-57
2022/05/19 10:37:38;;;;;;;;;;;;;;;22.16;31.86;95436.91;1695004;83;20985;-55
2022/05/19 10:40:33;;;;;;;4.87;1.70;;;;;;;22.69;32.73;95440.20;1701731;83;21328;-55
2022/05/19 10:43:41;;;;;;;2.35;1.40;;;;;;;22.98;30.42;95439.05;1698533;83;20997;-54
2022/05/19 10:46:11;;;;;;;3.35;1.50;;;;;;;23.30;30.41;95433.30;1684856;83;21787;-58
2022/05/19 10:49:09;;;;;;;3.30;1.45;;;;;;;23.63;30.57;95435.27;1685397;85;21013;-55
2022/05/19 10:52:10;;;;;;;3.15;1.37;;;;;;;23.92;28.28;95432.62;1684698;83;21068;-56
2022/05/19 10:55:09;;;;;;;4.70;1.72;;;;;;;24.13;28.33;95434.58;1632826;83;21557;-56
2022/05/19 10:57:50;;;;;;;2.08;1.10;;;;;;;24.36;30.65;95428.20;1640499;86;20978;-56
2022/05/19 11:00:23;;;;;;;2.95;1.40;;;;;;;24.65;28.17;95431.73;1655750;85;21137;-55
2022/05/19 11:03:31;;;;;;;6.90;1.22;;;;;;;24.95;25.54;95430.47;1594980;86;21034;-56
2022/05/19 11:06:19;;;;;;;2.02;1.30;;;;;;;25.27;26.49;95427.92;1654429;85;21507;-54
2022/05/19 11:09:15;;;;;;;3.55;1.52;;;;;;;25.62;23.67;95427.16;1622723;87;21860;-55
2022/05/19 11:12:17;;;;;;;1.60;1.02;;;;;;;25.81;23.67;95427.97;1620340;88;21075;-56
2022/05/19 11:15:15;;;;;;;2.20;1.20;;;;;;;26.06;24.45;95419.61;1647398;87;20990;-55
2022/05/19 11:17:56;;;;;;;3.15;1.52;;;;;;;26.30;23.99;95417.48;1644993;86;21074;-53
2022/05/19 11:20:28;;;;;;;5.20;1.72;;;;;;;26.73;26.18;95416.78;1640542;86;21450;-52
2022/05/19 11:23:14;;;;;;;3.10;1.10;;;;;;;27.18;25.72;95414.77;1646824;85;21763;-55
2022/05/19 11:28:45;;;;;;;6.90;1.32;;;;;;;27.76;25.11;95414.11;1636007;87;21114;-55
2022/05/19 11:31:17;;;;;;;4.10;1.20;;;;;;;28.05;25.92;95410.19;1592887;87;21106;-56
2022/05/19 11:33:48;;;;;;;2.75;1.17;;;;;;;28.44;24.61;95408.73;1604288;87;21587;-55
2022/05/19 11:36:51;;;;;;;4.20;1.40;;;;;;;28.77;23.19;95409.38;1631073;87;21186;-57
2022/05/19 11:39:32;;;;;;;1.52;0.85;;;;;;;29.06;23.45;95410.37;1633565;85;21090;-54
2022/05/19 11:42:24;;;;;;;3.98;1.20;;;;;;;29.39;22.88;95403.86;1631006;88;21041;-56
2022/05/19 11:44:51;;;;;;;3.05;1.52;;;;;;;29.49;21.10;95400.64;1626077;87;20970;-56
2022/05/19 11:56:10;;;;;;;4.15;1.10;;;;;;;30.34;20.72;95391.52;1603778;87;21042;-56
2022/05/19 11:58:38;;;;;;;5.53;1.00;;;;;;;30.63;20.49;95388.73;1606588;88;21041;-55
2022/05/19 12:01:15;;;;;;;3.90;1.00;;;;;;;30.88;19.99;95398.25;1628481;88;21053;-55
2022/05/19 12:03:59;;;;;;;4.95;1.07;;;;;;;31.12;19.50;95394.93;1631570;86;21811;-55
2022/05/19 12:06:33;;;;;;;4.70;1.05;;;;;;;31.38;19.60;95389.55;1624878;86;21043;-57
2022/05/19 12:09:21;;;;;;;4.37;1.07;;;;;;;31.35;19.78;95385.74;1628995;88;21101;-55
2022/05/19 12:12:04;;;;;;;;;;;;;;;31.24;19.20;95383.27;1632269;87;21706;-55
2022/05/19 12:14:42;;;;;;;1.17;0.75;;;;;;;31.24;20.43;95387.53;1629768;88;20154;-56
2022/05/19 12:17:32;;;;;;;2.12;0.95;;;;;;;31.22;20.64;95382.33;1623720;88;21684;-55
2022/05/19 12:20:03;;;;;;;2.65;1.25;;;;;;;31.49;19.23;95383.45;1628504;88;21692;-54
2022/05/19 12:22:45;;;;;;;3.25;1.20;;;;;;;31.75;17.88;95382.41;1623467;88;21049;-54
2022/05/19 12:25:25;;;;;;;1.30;0.95;;;;;;;32.02;18.02;95379.24;1627180;86;21078;-56
2022/05/19 12:28:06;;;;;;;2.22;1.50;;;;;;;32.27;17.91;95374.44;1626507;88;21073;-55